sensor_id;sensor_type;location;lat;lon;timestamp;pressure;altitude;pressure_sealevel;temperature;humidity
41106;BME280;74159;52.530;13.188;2024-01-10T00:00:05;103192.53;;;-7.63;67.90
41106;BME280;74159;52.530;13.188;2024-01-10T00:02:31;103188.19;;;-7.51;67.91
41106;BME280;74159;52.530;13.188;2024-01-10T00:04:56;103189.63;;;-7.45;67.59
41106;BME280;74159;52.530;13.188;2024-01-10T00:07:21;103188.44;;;-7.41;67.54
41106;BME280;74159;52.530;13.188;2024-01-10T00:09:47;103186.28;;;-7.77;67.83
41106;BME280;74159;52.530;13.188;2024-01-10T00:12:12;103181.31;;;-7.69;67.94
41106;BME280;74159;52.530;13.188;2024-01-10T00:14:37;103182.16;;;-7.69;68.14
41106;BME280;74159;52.530;13.188;2024-01-10T00:17:02;103176.22;;;-7.88;68.11
41106;BME280;74159;52.530;13.188;2024-01-10T00:19:28;103178.91;;;-7.88;68.13
41106;BME280;74159;52.530;13.188;2024-01-10T00:21:53;103180.34;;;-7.82;67.98
41106;BME280;74159;52.530;13.188;2024-01-10T00:24:18;103177.16;;;-7.75;68.17
41106;BME280;74159;52.530;13.188;2024-01-10T00:26:43;103173.72;;;-7.77;68.35
41106;BME280;74159;52.530;13.188;2024-01-10T00:29:09;103177.75;;;-7.84;68.16
41106;BME280;74159;52.530;13.188;2024-01-10T00:31:34;103175.25;;;-7.73;68.56
41106;BME280;74159;52.530;13.188;2024-01-10T00:33:59;103176.59;;;-7.66;67.71
41106;BME280;74159;52.530;13.188;2024-01-10T00:36:25;103176.19;;;-7.60;68.07
41106;BME280;74159;52.530;13.188;2024-01-10T00:38:50;103174.09;;;-8.11;68.51
41106;BME280;74159;52.530;13.188;2024-01-10T00:41:16;103170.19;;;-8.06;68.56
41106;BME280;74159;52.530;13.188;2024-01-10T00:43:41;103164.13;;;-7.95;68.88
41106;BME280;74159;52.530;13.188;2024-01-10T00:46:06;103156.84;;;-7.93;68.20
41106;BME280;74159;52.530;13.188;2024-01-10T00:48:31;103169.41;;;-7.79;68.12
41106;BME280;74159;52.530;13.188;2024-01-10T00:50:56;103171.63;;;-7.72;67.82
41106;BME280;74159;52.530;13.188;2024-01-10T00:53:22;103160.78;;;-7.84;68.26
41106;BME280;74159;52.530;13.188;2024-01-10T00:55:47;103161.25;;;-8.06;69.41
41106;BME280;74159;52.530;13.188;2024-01-10T00:58:13;103159.44;;;-8.20;68.86
41106;BME280;74159;52.530;13.188;2024-01-10T01:00:38;103159.97;;;-8.29;69.29
41106;BME280;74159;52.530;13.188;2024-01-10T01:03:03;103157.78;;;-8.51;69.65
41106;BME280;74159;52.530;13.188;2024-01-10T01:05:29;103147.06;;;-8.37;69.23
41106;BME280;74159;52.530;13.188;2024-01-10T01:07:54;103151.06;;;-8.44;68.91
41106;BME280;74159;52.530;13.188;2024-01-10T01:10:19;103151.53;;;-8.52;69.51
41106;BME280;74159;52.530;13.188;2024-01-10T01:12:44;103150.41;;;-8.33;70.18
41106;BME280;74159;52.530;13.188;2024-01-10T01:15:10;103157.19;;;-8.28;69.59
41106;BME280;74159;52.530;13.188;2024-01-10T01:17:35;103153.00;;;-8.18;69.15
41106;BME280;74159;52.530;13.188;2024-01-10T01:20:00;103152.50;;;-8.10;69.00
41106;BME280;74159;52.530;13.188;2024-01-10T01:22:25;103151.09;;;-7.87;69.16
41106;BME280;74159;52.530;13.188;2024-01-10T01:24:51;103158.09;;;-7.99;68.10
41106;BME280;74159;52.530;13.188;2024-01-10T01:27:17;103144.75;;;-8.00;68.21
41106;BME280;74159;52.530;13.188;2024-01-10T01:29:42;103149.84;;;-8.10;69.08
41106;BME280;74159;52.530;13.188;2024-01-10T01:32:07;103150.41;;;-7.91;69.08
41106;BME280;74159;52.530;13.188;2024-01-10T01:34:33;103158.72;;;-8.24;68.35
41106;BME280;74159;52.530;13.188;2024-01-10T01:36:58;103148.38;;;-8.30;69.19
41106;BME280;74159;52.530;13.188;2024-01-10T01:39:23;103143.44;;;-8.36;69.81
41106;BME280;74159;52.530;13.188;2024-01-10T01:41:49;103150.72;;;-8.38;69.49
41106;BME280;74159;52.530;13.188;2024-01-10T01:44:14;103151.06;;;-8.44;70.01
41106;BME280;74159;52.530;13.188;2024-01-10T01:46:39;103156.09;;;-8.38;69.79
41106;BME280;74159;52.530;13.188;2024-01-10T01:49:08;103149.94;;;-8.11;69.39
41106;BME280;74159;52.530;13.188;2024-01-10T01:51:34;103144.66;;;-8.41;69.92
41106;BME280;74159;52.530;13.188;2024-01-10T01:54:01;103133.06;;;-8.42;69.78
41106;BME280;74159;52.530;13.188;2024-01-10T01:56:27;103142.13;;;-8.59;69.34
41106;BME280;74159;52.530;13.188;2024-01-10T01:58:53;103150.25;;;-8.60;69.37
41106;BME280;74159;52.530;13.188;2024-01-10T02:01:19;103142.31;;;-8.62;70.00
41106;BME280;74159;52.530;13.188;2024-01-10T02:03:46;103145.09;;;-8.63;69.90
41106;BME280;74159;52.530;13.188;2024-01-10T02:06:12;103148.06;;;-8.68;69.61
41106;BME280;74159;52.530;13.188;2024-01-10T02:08:37;103140.72;;;-8.50;69.52
41106;BME280;74159;52.530;13.188;2024-01-10T02:11:02;103144.84;;;-8.44;69.91
41106;BME280;74159;52.530;13.188;2024-01-10T02:13:28;103146.88;;;-8.34;69.69
41106;BME280;74159;52.530;13.188;2024-01-10T02:15:53;103153.75;;;-8.44;70.18
41106;BME280;74159;52.530;13.188;2024-01-10T02:18:19;103143.78;;;-8.42;70.44
41106;BME280;74159;52.530;13.188;2024-01-10T02:20:44;103140.84;;;-8.37;70.18
41106;BME280;74159;52.530;13.188;2024-01-10T02:23:10;103144.19;;;-8.20;69.45
41106;BME280;74159;52.530;13.188;2024-01-10T02:25:35;103135.53;;;-8.25;69.53
41106;BME280;74159;52.530;13.188;2024-01-10T02:28:01;103134.00;;;-8.29;70.59
41106;BME280;74159;52.530;13.188;2024-01-10T02:30:26;103130.00;;;-8.22;70.21
41106;BME280;74159;52.530;13.188;2024-01-10T02:32:51;103138.41;;;-8.56;69.94
41106;BME280;74159;52.530;13.188;2024-01-10T02:35:17;103138.00;;;-8.64;70.81
41106;BME280;74159;52.530;13.188;2024-01-10T02:37:42;103134.78;;;-8.85;71.17
41106;BME280;74159;52.530;13.188;2024-01-10T02:40:07;103148.91;;;-8.67;70.58
41106;BME280;74159;52.530;13.188;2024-01-10T02:42:33;103135.16;;;-8.47;70.12
41106;BME280;74159;52.530;13.188;2024-01-10T02:44:58;103132.69;;;-8.36;70.41
41106;BME280;74159;52.530;13.188;2024-01-10T02:47:24;103130.94;;;-8.51;70.82
41106;BME280;74159;52.530;13.188;2024-01-10T02:49:49;103127.06;;;-8.61;71.17
41106;BME280;74159;52.530;13.188;2024-01-10T02:52:14;103133.06;;;-8.56;70.67
41106;BME280;74159;52.530;13.188;2024-01-10T02:54:40;103131.97;;;-8.68;71.49
41106;BME280;74159;52.530;13.188;2024-01-10T02:57:05;103132.25;;;-8.72;71.24
41106;BME280;74159;52.530;13.188;2024-01-10T02:59:30;103133.25;;;-8.75;70.90
41106;BME280;74159;52.530;13.188;2024-01-10T03:01:55;103131.81;;;-8.81;70.70
41106;BME280;74159;52.530;13.188;2024-01-10T03:04:20;103116.34;;;-8.91;71.07
41106;BME280;74159;52.530;13.188;2024-01-10T03:06:46;103120.38;;;-8.98;70.80
41106;BME280;74159;52.530;13.188;2024-01-10T03:09:11;103121.28;;;-8.84;70.67
41106;BME280;74159;52.530;13.188;2024-01-10T03:11:36;103118.91;;;-8.74;70.19
41106;BME280;74159;52.530;13.188;2024-01-10T03:14:02;103118.25;;;-8.63;70.88
41106;BME280;74159;52.530;13.188;2024-01-10T03:16:29;103122.66;;;-8.62;70.80
41106;BME280;74159;52.530;13.188;2024-01-10T03:18:54;103113.94;;;-8.66;70.71
41106;BME280;74159;52.530;13.188;2024-01-10T03:21:19;103115.59;;;-8.63;71.13
41106;BME280;74159;52.530;13.188;2024-01-10T03:23:49;103116.31;;;-8.75;70.46
41106;BME280;74159;52.530;13.188;2024-01-10T03:26:14;103114.13;;;-8.69;70.37
41106;BME280;74159;52.530;13.188;2024-01-10T03:28:40;103107.72;;;-8.66;71.23
41106;BME280;74159;52.530;13.188;2024-01-10T03:31:05;103113.47;;;-8.58;71.51
41106;BME280;74159;52.530;13.188;2024-01-10T03:33:30;103116.75;;;-8.53;71.65
41106;BME280;74159;52.530;13.188;2024-01-10T03:35:55;103115.28;;;-8.59;70.20
41106;BME280;74159;52.530;13.188;2024-01-10T03:38:21;103108.50;;;-8.64;70.82
41106;BME280;74159;52.530;13.188;2024-01-10T03:40:46;103114.56;;;-8.46;70.87
41106;BME280;74159;52.530;13.188;2024-01-10T03:43:11;103103.94;;;-8.34;71.08
41106;BME280;74159;52.530;13.188;2024-01-10T03:45:37;103108.53;;;-8.22;70.24
41106;BME280;74159;52.530;13.188;2024-01-10T03:48:02;103104.50;;;-8.14;70.08
41106;BME280;74159;52.530;13.188;2024-01-10T03:50:27;103097.09;;;-8.11;70.01
41106;BME280;74159;52.530;13.188;2024-01-10T03:52:53;103099.59;;;-8.08;70.06
41106;BME280;74159;52.530;13.188;2024-01-10T03:55:18;103099.31;;;-8.03;70.06
41106;BME280;74159;52.530;13.188;2024-01-10T03:57:43;103102.00;;;-8.03;69.83
41106;BME280;74159;52.530;13.188;2024-01-10T04:00:09;103097.19;;;-8.12;70.35
41106;BME280;74159;52.530;13.188;2024-01-10T04:02:36;103102.38;;;-8.09;70.12
41106;BME280;74159;52.530;13.188;2024-01-10T04:05:01;103105.81;;;-8.07;70.49
41106;BME280;74159;52.530;13.188;2024-01-10T04:07:27;103109.09;;;-8.16;70.27
41106;BME280;74159;52.530;13.188;2024-01-10T04:09:52;103103.13;;;-8.07;70.98
41106;BME280;74159;52.530;13.188;2024-01-10T04:12:17;103102.38;;;-8.09;70.16
41106;BME280;74159;52.530;13.188;2024-01-10T04:14:42;103098.25;;;-8.01;70.33
41106;BME280;74159;52.530;13.188;2024-01-10T04:17:08;103104.69;;;-8.03;70.31
41106;BME280;74159;52.530;13.188;2024-01-10T04:19:34;103107.06;;;-8.13;70.52
41106;BME280;74159;52.530;13.188;2024-01-10T04:21:59;103106.50;;;-8.04;70.41
41106;BME280;74159;52.530;13.188;2024-01-10T04:24:25;103093.84;;;-8.02;69.68
41106;BME280;74159;52.530;13.188;2024-01-10T04:26:50;103098.41;;;-7.90;70.05
41106;BME280;74159;52.530;13.188;2024-01-10T04:29:15;103091.34;;;-8.19;70.03
41106;BME280;74159;52.530;13.188;2024-01-10T04:31:40;103087.84;;;-8.34;70.04
41106;BME280;74159;52.530;13.188;2024-01-10T04:34:06;103100.84;;;-8.28;70.63
41106;BME280;74159;52.530;13.188;2024-01-10T04:36:31;103087.50;;;-8.15;69.98
41106;BME280;74159;52.530;13.188;2024-01-10T04:38:56;103089.25;;;-8.14;69.83
41106;BME280;74159;52.530;13.188;2024-01-10T04:41:22;103082.81;;;-8.26;69.56
41106;BME280;74159;52.530;13.188;2024-01-10T04:43:47;103086.66;;;-8.15;70.58
41106;BME280;74159;52.530;13.188;2024-01-10T04:46:12;103090.97;;;-8.27;70.21
41106;BME280;74159;52.530;13.188;2024-01-10T04:48:37;103081.84;;;-8.25;70.17
41106;BME280;74159;52.530;13.188;2024-01-10T04:51:03;103082.47;;;-8.34;70.77
41106;BME280;74159;52.530;13.188;2024-01-10T04:53:28;103073.44;;;-8.33;70.72
41106;BME280;74159;52.530;13.188;2024-01-10T04:55:53;103080.94;;;-8.38;70.88
41106;BME280;74159;52.530;13.188;2024-01-10T04:58:18;103082.81;;;-8.40;70.63
41106;BME280;74159;52.530;13.188;2024-01-10T05:00:44;103090.41;;;-8.46;71.36
41106;BME280;74159;52.530;13.188;2024-01-10T05:03:09;103086.94;;;-8.63;70.87
41106;BME280;74159;52.530;13.188;2024-01-10T05:05:34;103094.31;;;-8.66;70.37
41106;BME280;74159;52.530;13.188;2024-01-10T05:08:00;103090.13;;;-8.56;71.07
41106;BME280;74159;52.530;13.188;2024-01-10T05:10:26;103091.34;;;-8.62;70.95
41106;BME280;74159;52.530;13.188;2024-01-10T05:12:51;103103.94;;;-8.78;70.53
41106;BME280;74159;52.530;13.188;2024-01-10T05:15:16;103103.28;;;-8.82;71.32
41106;BME280;74159;52.530;13.188;2024-01-10T05:17:42;103086.06;;;-8.63;71.45
41106;BME280;74159;52.530;13.188;2024-01-10T05:20:07;103090.66;;;-8.65;71.18
41106;BME280;74159;52.530;13.188;2024-01-10T05:22:34;103088.00;;;-8.65;71.09
41106;BME280;74159;52.530;13.188;2024-01-10T05:25:00;103086.75;;;-8.60;71.39
41106;BME280;74159;52.530;13.188;2024-01-10T05:27:25;103090.47;;;-8.62;71.20
41106;BME280;74159;52.530;13.188;2024-01-10T05:29:50;103088.72;;;-8.77;71.02
41106;BME280;74159;52.530;13.188;2024-01-10T05:32:15;103089.34;;;-8.72;70.51
41106;BME280;74159;52.530;13.188;2024-01-10T05:34:41;103085.09;;;-8.76;71.01
41106;BME280;74159;52.530;13.188;2024-01-10T05:37:06;103100.63;;;-8.67;70.97
41106;BME280;74159;52.530;13.188;2024-01-10T05:39:32;103095.19;;;-8.66;71.00
41106;BME280;74159;52.530;13.188;2024-01-10T05:41:57;103090.56;;;-8.64;70.89
41106;BME280;74159;52.530;13.188;2024-01-10T05:44:22;103090.97;;;-8.70;70.72
41106;BME280;74159;52.530;13.188;2024-01-10T05:46:47;103092.00;;;-8.72;71.18
41106;BME280;74159;52.530;13.188;2024-01-10T05:49:12;103091.13;;;-8.87;71.02
41106;BME280;74159;52.530;13.188;2024-01-10T05:51:38;103090.72;;;-9.11;71.95
41106;BME280;74159;52.530;13.188;2024-01-10T05:54:03;103085.50;;;-8.98;71.73
41106;BME280;74159;52.530;13.188;2024-01-10T05:56:29;103083.94;;;-8.87;71.31
41106;BME280;74159;52.530;13.188;2024-01-10T05:58:54;103084.47;;;-8.96;71.77
41106;BME280;74159;52.530;13.188;2024-01-10T06:01:19;103077.59;;;-8.86;71.64
41106;BME280;74159;52.530;13.188;2024-01-10T06:03:45;103082.69;;;-8.81;71.04
41106;BME280;74159;52.530;13.188;2024-01-10T06:06:10;103085.69;;;-9.01;71.79
41106;BME280;74159;52.530;13.188;2024-01-10T06:08:35;103084.97;;;-8.89;71.35
41106;BME280;74159;52.530;13.188;2024-01-10T06:11:04;103080.47;;;-8.89;71.33
41106;BME280;74159;52.530;13.188;2024-01-10T06:13:31;103077.66;;;-8.71;71.08
41106;BME280;74159;52.530;13.188;2024-01-10T06:15:56;103069.22;;;-8.51;76.90
41106;BME280;74159;52.530;13.188;2024-01-10T06:18:21;103079.56;;;-8.16;77.39
41106;BME280;74159;52.530;13.188;2024-01-10T06:20:46;103072.25;;;-7.86;75.88
41106;BME280;74159;52.530;13.188;2024-01-10T06:23:12;103065.56;;;-8.22;70.54
41106;BME280;74159;52.530;13.188;2024-01-10T06:25:38;103068.84;;;-8.45;70.95
41106;BME280;74159;52.530;13.188;2024-01-10T06:28:03;103061.94;;;-8.63;70.96
41106;BME280;74159;52.530;13.188;2024-01-10T06:30:28;103069.38;;;-8.83;70.79
41106;BME280;74159;52.530;13.188;2024-01-10T06:32:54;103064.00;;;-8.83;70.71
41106;BME280;74159;52.530;13.188;2024-01-10T06:35:20;103071.63;;;-8.91;71.26
41106;BME280;74159;52.530;13.188;2024-01-10T06:37:45;103056.19;;;-8.71;71.16
41106;BME280;74159;52.530;13.188;2024-01-10T06:40:10;103070.91;;;-8.78;70.44
41106;BME280;74159;52.530;13.188;2024-01-10T06:42:36;103061.66;;;-8.73;71.17
41106;BME280;74159;52.530;13.188;2024-01-10T06:45:02;103068.13;;;-8.77;70.59
41106;BME280;74159;52.530;13.188;2024-01-10T06:47:28;103070.56;;;-8.72;70.66
41106;BME280;74159;52.530;13.188;2024-01-10T06:49:54;103067.00;;;-8.73;70.34
41106;BME280;74159;52.530;13.188;2024-01-10T06:52:19;103070.38;;;-8.69;69.76
41106;BME280;74159;52.530;13.188;2024-01-10T06:54:44;103051.38;;;-8.81;70.55
41106;BME280;74159;52.530;13.188;2024-01-10T06:57:10;103059.69;;;-8.85;70.80
41106;BME280;74159;52.530;13.188;2024-01-10T06:59:35;103062.47;;;-8.87;71.58
41106;BME280;74159;52.530;13.188;2024-01-10T07:02:00;103060.72;;;-9.02;71.39
41106;BME280;74159;52.530;13.188;2024-01-10T07:04:26;103062.56;;;-9.18;71.71
41106;BME280;74159;52.530;13.188;2024-01-10T07:06:53;103060.66;;;-9.16;71.88
41106;BME280;74159;52.530;13.188;2024-01-10T07:09:18;103068.84;;;-9.03;71.58
41106;BME280;74159;52.530;13.188;2024-01-10T07:11:47;103068.66;;;-9.00;71.32
41106;BME280;74159;52.530;13.188;2024-01-10T07:14:13;103061.84;;;-9.06;71.85
41106;BME280;74159;52.530;13.188;2024-01-10T07:16:39;103066.66;;;-8.97;72.04
41106;BME280;74159;52.530;13.188;2024-01-10T07:19:07;103069.00;;;-8.76;71.34
41106;BME280;74159;52.530;13.188;2024-01-10T07:21:32;103052.34;;;-8.67;70.75
41106;BME280;74159;52.530;13.188;2024-01-10T07:23:57;103066.91;;;-8.71;70.51
41106;BME280;74159;52.530;13.188;2024-01-10T07:26:24;103065.63;;;-8.80;71.60
41106;BME280;74159;52.530;13.188;2024-01-10T07:28:49;103068.63;;;-8.70;71.12
41106;BME280;74159;52.530;13.188;2024-01-10T07:31:15;103068.25;;;-8.64;70.94
41106;BME280;74159;52.530;13.188;2024-01-10T07:33:40;103065.03;;;-8.55;70.64
41106;BME280;74159;52.530;13.188;2024-01-10T07:36:06;103056.78;;;-8.38;70.81
41106;BME280;74159;52.530;13.188;2024-01-10T07:38:32;103063.84;;;-8.23;70.13
41106;BME280;74159;52.530;13.188;2024-01-10T07:40:57;103062.00;;;-8.08;70.77
41106;BME280;74159;52.530;13.188;2024-01-10T07:43:24;103061.97;;;-8.35;71.08
41106;BME280;74159;52.530;13.188;2024-01-10T07:45:49;103055.84;;;-8.37;70.70
41106;BME280;74159;52.530;13.188;2024-01-10T07:48:14;103057.97;;;-8.15;70.62
41106;BME280;74159;52.530;13.188;2024-01-10T07:50:39;103062.59;;;-8.17;68.65
41106;BME280;74159;52.530;13.188;2024-01-10T07:53:05;103070.53;;;-8.15;69.19
41106;BME280;74159;52.530;13.188;2024-01-10T07:55:30;103071.31;;;-8.13;69.54
41106;BME280;74159;52.530;13.188;2024-01-10T07:57:55;103069.94;;;-7.92;69.30
41106;BME280;74159;52.530;13.188;2024-01-10T08:00:21;103069.34;;;-7.83;69.70
41106;BME280;74159;52.530;13.188;2024-01-10T08:02:46;103075.28;;;-7.78;69.32
41106;BME280;74159;52.530;13.188;2024-01-10T08:05:11;103074.84;;;-7.84;69.38
41106;BME280;74159;52.530;13.188;2024-01-10T08:07:37;103077.63;;;-7.86;69.74
41106;BME280;74159;52.530;13.188;2024-01-10T08:10:06;103072.97;;;-7.70;68.99
41106;BME280;74159;52.530;13.188;2024-01-10T08:12:32;103072.06;;;-7.56;69.63
41106;BME280;74159;52.530;13.188;2024-01-10T08:14:58;103067.31;;;-7.38;69.35
41106;BME280;74159;52.530;13.188;2024-01-10T08:17:23;103066.69;;;-7.29;68.67
41106;BME280;74159;52.530;13.188;2024-01-10T08:19:48;103068.19;;;-7.38;69.73
41106;BME280;74159;52.530;13.188;2024-01-10T08:22:14;103073.78;;;-7.28;69.92
41106;BME280;74159;52.530;13.188;2024-01-10T08:24:40;103072.97;;;-7.16;69.81
41106;BME280;74159;52.530;13.188;2024-01-10T08:27:05;103072.78;;;-7.13;69.64
41106;BME280;74159;52.530;13.188;2024-01-10T08:29:30;103060.97;;;-6.98;69.31
41106;BME280;74159;52.530;13.188;2024-01-10T08:31:56;103059.25;;;-6.99;68.69
41106;BME280;74159;52.530;13.188;2024-01-10T08:34:22;103057.84;;;-6.91;67.93
41106;BME280;74159;52.530;13.188;2024-01-10T08:36:47;103066.50;;;-6.86;68.52
41106;BME280;74159;52.530;13.188;2024-01-10T08:39:15;103065.13;;;-6.67;68.80
41106;BME280;74159;52.530;13.188;2024-01-10T08:41:40;103070.72;;;-6.57;68.05
41106;BME280;74159;52.530;13.188;2024-01-10T08:44:09;103061.16;;;-6.35;67.83
41106;BME280;74159;52.530;13.188;2024-01-10T08:46:34;103073.94;;;-6.26;67.95
41106;BME280;74159;52.530;13.188;2024-01-10T08:48:59;103067.47;;;-6.11;66.93
41106;BME280;74159;52.530;13.188;2024-01-10T08:51:25;103077.59;;;-6.15;68.58
41106;BME280;74159;52.530;13.188;2024-01-10T08:53:50;103070.25;;;-6.00;68.89
41106;BME280;74159;52.530;13.188;2024-01-10T08:56:15;103068.09;;;-5.95;68.06
41106;BME280;74159;52.530;13.188;2024-01-10T08:58:41;103069.94;;;-5.71;68.02
41106;BME280;74159;52.530;13.188;2024-01-10T09:01:06;103064.94;;;-5.52;66.37
41106;BME280;74159;52.530;13.188;2024-01-10T09:03:33;103067.03;;;-5.45;67.03
41106;BME280;74159;52.530;13.188;2024-01-10T09:05:59;103062.84;;;-5.25;64.94
41106;BME280;74159;52.530;13.188;2024-01-10T09:08:24;103069.22;;;-5.02;62.59
41106;BME280;74159;52.530;13.188;2024-01-10T09:10:49;103068.44;;;-4.80;63.51
41106;BME280;74159;52.530;13.188;2024-01-10T09:13:15;103062.31;;;-4.71;62.74
41106;BME280;74159;52.530;13.188;2024-01-10T09:15:40;103065.97;;;-5.18;60.85
41106;BME280;74159;52.530;13.188;2024-01-10T09:18:05;103064.69;;;-4.44;60.58
41106;BME280;74159;52.530;13.188;2024-01-10T09:20:31;103067.03;;;-4.39;60.21
41106;BME280;74159;52.530;13.188;2024-01-10T09:22:56;103064.25;;;-4.73;58.64
41106;BME280;74159;52.530;13.188;2024-01-10T09:25:21;103063.31;;;-4.61;59.99
41106;BME280;74159;52.530;13.188;2024-01-10T09:27:46;103060.41;;;-4.24;61.01
41106;BME280;74159;52.530;13.188;2024-01-10T09:30:12;103066.50;;;-4.56;58.54
41106;BME280;74159;52.530;13.188;2024-01-10T09:32:37;103064.34;;;-4.39;58.64
41106;BME280;74159;52.530;13.188;2024-01-10T09:35:04;103063.84;;;-3.77;57.88
41106;BME280;74159;52.530;13.188;2024-01-10T09:37:30;103061.59;;;-3.50;56.83
41106;BME280;74159;52.530;13.188;2024-01-10T09:39:55;103056.41;;;-3.42;56.60
41106;BME280;74159;52.530;13.188;2024-01-10T09:42:20;103052.56;;;-3.39;56.02
41106;BME280;74159;52.530;13.188;2024-01-10T09:44:50;103047.44;;;-3.42;55.91
41106;BME280;74159;52.530;13.188;2024-01-10T09:47:16;103042.47;;;-3.69;56.22
41106;BME280;74159;52.530;13.188;2024-01-10T09:49:41;103040.88;;;-3.28;55.54
41106;BME280;74159;52.530;13.188;2024-01-10T09:52:10;103045.50;;;-3.51;54.64
41106;BME280;74159;52.530;13.188;2024-01-10T09:54:35;103045.00;;;-3.56;54.65
41106;BME280;74159;52.530;13.188;2024-01-10T09:57:02;103048.41;;;-3.32;55.88
41106;BME280;74159;52.530;13.188;2024-01-10T09:59:28;103041.00;;;-2.56;54.83
41106;BME280;74159;52.530;13.188;2024-01-10T10:01:53;103041.91;;;-3.09;54.36
41106;BME280;74159;52.530;13.188;2024-01-10T10:04:21;103044.75;;;-3.21;54.80
41106;BME280;74159;52.530;13.188;2024-01-10T10:06:52;103035.84;;;-3.01;54.68
41106;BME280;74159;52.530;13.188;2024-01-10T10:09:22;103046.50;;;-2.37;54.45
41106;BME280;74159;52.530;13.188;2024-01-10T10:11:53;103039.47;;;-1.88;53.54
41106;BME280;74159;52.530;13.188;2024-01-10T10:14:18;103036.59;;;-2.27;52.04
41106;BME280;74159;52.530;13.188;2024-01-10T10:16:43;103036.47;;;-1.85;51.81
41106;BME280;74159;52.530;13.188;2024-01-10T10:19:09;103037.69;;;-2.08;52.37
41106;BME280;74159;52.530;13.188;2024-01-10T10:21:36;103027.38;;;-1.84;52.24
41106;BME280;74159;52.530;13.188;2024-01-10T10:24:02;103035.13;;;-2.61;51.78
41106;BME280;74159;52.530;13.188;2024-01-10T10:26:33;103034.06;;;-2.70;52.10
41106;BME280;74159;52.530;13.188;2024-01-10T10:28:59;103020.13;;;-2.65;52.47
41106;BME280;74159;52.530;13.188;2024-01-10T10:31:25;103022.69;;;-2.64;51.96
41106;BME280;74159;52.530;13.188;2024-01-10T10:33:51;103022.22;;;-2.48;51.45
41106;BME280;74159;52.530;13.188;2024-01-10T10:36:17;103016.72;;;-2.37;51.57
41106;BME280;74159;52.530;13.188;2024-01-10T10:38:42;103012.56;;;-2.10;52.17
41106;BME280;74159;52.530;13.188;2024-01-10T10:41:07;103001.78;;;-2.31;50.79
41106;BME280;74159;52.530;13.188;2024-01-10T10:43:36;103000.53;;;-1.77;51.29
41106;BME280;74159;52.530;13.188;2024-01-10T10:46:02;102999.06;;;-1.91;50.61
41106;BME280;74159;52.530;13.188;2024-01-10T10:48:28;102997.75;;;-1.28;49.18
41106;BME280;74159;52.530;13.188;2024-01-10T10:53:35;102992.22;;;-0.50;48.46
41106;BME280;74159;52.530;13.188;2024-01-10T10:56:04;102996.88;;;-1.47;49.07
41106;BME280;74159;52.530;13.188;2024-01-10T10:58:34;102995.16;;;-1.29;49.41
41106;BME280;74159;52.530;13.188;2024-01-10T11:01:00;102996.56;;;-0.86;49.74
41106;BME280;74159;52.530;13.188;2024-01-10T11:03:26;103010.47;;;-1.28;47.88
41106;BME280;74159;52.530;13.188;2024-01-10T11:05:52;103000.53;;;-0.62;47.42
41106;BME280;74159;52.530;13.188;2024-01-10T11:08:18;103004.19;;;-0.34;46.52
41106;BME280;74159;52.530;13.188;2024-01-10T11:10:44;103001.00;;;0.89;44.08
41106;BME280;74159;52.530;13.188;2024-01-10T11:25:41;102971.09;;;4.19;37.51
41106;BME280;74159;52.530;13.188;2024-01-10T11:28:07;102976.19;;;4.30;36.36
41106;BME280;74159;52.530;13.188;2024-01-10T11:30:36;102965.19;;;4.07;36.32
41106;BME280;74159;52.530;13.188;2024-01-10T11:33:24;102966.91;;;4.85;35.25
41106;BME280;74159;52.530;13.188;2024-01-10T11:38:37;102957.53;;;6.14;32.90
41106;BME280;74159;52.530;13.188;2024-01-10T11:41:03;102966.25;;;4.37;34.67
41106;BME280;74159;52.530;13.188;2024-01-10T11:43:29;102958.69;;;4.85;33.62
41106;BME280;74159;52.530;13.188;2024-01-10T11:45:55;102961.38;;;4.47;34.15
41106;BME280;74159;52.530;13.188;2024-01-10T11:48:26;102962.84;;;4.58;33.48
41106;BME280;74159;52.530;13.188;2024-01-10T11:50:52;102949.00;;;6.59;30.54
41106;BME280;74159;52.530;13.188;2024-01-10T11:54:00;102953.31;;;5.96;31.51
41106;BME280;74159;52.530;13.188;2024-01-10T11:56:10;102944.44;;;6.30;30.33
41106;BME280;74159;52.530;13.188;2024-01-10T11:58:51;102940.50;;;5.89;30.98
41106;BME280;74159;52.530;13.188;2024-01-10T12:03:26;102942.38;;;4.92;31.11
41106;BME280;74159;52.530;13.188;2024-01-10T12:05:53;102950.53;;;4.77;31.74
41106;BME280;74159;52.530;13.188;2024-01-10T12:08:18;102940.50;;;6.03;29.62
41106;BME280;74159;52.530;13.188;2024-01-10T12:10:44;102930.34;;;6.76;29.91
41106;BME280;74159;52.530;13.188;2024-01-10T12:13:09;102921.81;;;6.71;28.89
41106;BME280;74159;52.530;13.188;2024-01-10T12:15:35;102925.47;;;7.00;29.52
41106;BME280;74159;52.530;13.188;2024-01-10T12:18:01;102928.78;;;5.95;29.64
41106;BME280;74159;52.530;13.188;2024-01-10T12:20:26;102927.91;;;5.50;30.28
41106;BME280;74159;52.530;13.188;2024-01-10T12:22:51;102928.56;;;6.11;29.32
41106;BME280;74159;52.530;13.188;2024-01-10T12:25:16;102924.78;;;5.53;30.15
41106;BME280;74159;52.530;13.188;2024-01-10T12:27:44;102918.03;;;4.74;30.48
41106;BME280;74159;52.530;13.188;2024-01-10T12:30:09;102935.50;;;4.19;31.75
41106;BME280;74159;52.530;13.188;2024-01-10T12:32:35;102922.03;;;4.40;32.02
41106;BME280;74159;52.530;13.188;2024-01-10T12:35:01;102914.44;;;6.93;29.15
41106;BME280;74159;52.530;13.188;2024-01-10T12:37:27;102914.16;;;4.83;30.58
41106;BME280;74159;52.530;13.188;2024-01-10T12:39:52;102914.50;;;4.42;32.07
41106;BME280;74159;52.530;13.188;2024-01-10T12:42:18;102912.41;;;3.90;32.03
41106;BME280;74159;52.530;13.188;2024-01-10T12:44:44;102913.66;;;3.08;33.83
41106;BME280;74159;52.530;13.188;2024-01-10T12:47:20;102915.16;;;3.82;32.63
41106;BME280;74159;52.530;13.188;2024-01-10T12:49:47;102914.13;;;3.83;33.11
41106;BME280;74159;52.530;13.188;2024-01-10T12:52:13;102901.81;;;5.02;31.41